Time;durP1;ratioP1;P1;durP2;ratioP2;P2;SDS_P1;SDS_P2;PMS_P1;PMS_P2;Temp;Humidity;BMP_temperature;BMP_pressure;BME280_temperature;BME280_humidity;BME280_pressure;Samples;Min_cycle;Max_cycle;Signal;HPM_P1;HPM_P2
2022/02/25 00:00:38;;;;;;;0.83;0.80;;;5.00;99.90;;;;;;5120882;28;20055;-83
2022/02/25 00:03:13;;;;;;;0.77;0.57;;;5.00;99.90;;;;;;5121004;28;20055;-83
2022/02/25 00:05:42;;;;;;;0.50;0.50;;;5.00;99.90;;;;;;5119320;28;20067;-83
2022/02/25 00:08:09;;;;;;;0.70;0.70;;;5.00;99.90;;;;;;5101631;28;20044;-82
2022/02/25 00:10:38;;;;;;;1.60;1.00;;;5.00;99.90;;;;;;5100255;28;20048;-83
2022/02/25 00:13:10;;;;;;;0.63;0.53;;;5.00;99.90;;;;;;5111198;28;20048;-83
2022/02/25 00:15:37;;;;;;;0.90;0.65;;;5.00;99.90;;;;;;5121015;28;20047;-82
2022/02/25 00:18:04;;;;;;;0.60;0.60;;;5.00;99.90;;;;;;5121023;28;20056;-80
2022/02/25 00:20:32;;;;;;;0.60;0.60;;;5.00;99.90;;;;;;5120962;28;20067;-80
2022/02/25 00:23:04;;;;;;;0.83;0.63;;;4.90;99.90;;;;;;5120646;28;20063;-80
2022/02/25 00:25:36;;;;;;;0.82;0.50;;;4.80;99.90;;;;;;5120673;28;20043;-83
2022/02/25 00:28:10;;;;;;;0.63;0.60;;;4.70;99.90;;;;;;5101145;28;20080;-80
2022/02/25 00:30:39;;;;;;;0.67;0.50;;;4.70;99.90;;;;;;5112360;28;20507;-81
2022/02/25 00:33:07;;;;;;;0.70;0.67;;;4.70;99.90;;;;;;5120103;28;20424;-83
2022/02/25 00:35:34;;;;;;;0.60;0.60;;;4.70;99.90;;;;;;5118420;28;20051;-81
2022/02/25 00:38:05;;;;;;;2.03;1.07;;;4.70;99.90;;;;;;5118150;28;20553;-80
2022/02/25 00:40:32;;;;;;;0.80;0.80;;;4.60;99.90;;;;;;5116468;28;20532;-81
2022/02/25 00:42:58;;;;;;;0.50;0.50;;;4.60;99.90;;;;;;5118002;28;20055;-80
2022/02/25 00:45:29;;;;;;;0.93;0.50;;;4.60;99.90;;;;;;5117523;28;20096;-80
2022/02/25 00:47:56;;;;;;;0.80;0.47;;;4.60;99.90;;;;;;5109739;28;20059;-83
2022/02/25 00:50:23;;;;;;;2.47;0.70;;;4.70;99.90;;;;;;5114731;28;20062;-82
2022/02/25 00:52:53;;;;;;;2.10;2.00;;;4.60;99.90;;;;;;5118305;28;20058;-82
2022/02/25 00:55:20;;;;;;;1.20;1.10;;;4.70;99.90;;;;;;5117816;28;20527;-83
2022/02/25 00:57:50;;;;;;;1.60;1.07;;;4.70;99.90;;;;;;5117799;28;20062;-82
2022/02/25 01:00:20;;;;;;;2.47;0.70;;;4.70;99.90;;;;;;5116865;28;20047;-84
2022/02/25 01:02:49;;;;;;;2.20;1.50;;;4.70;99.90;;;;;;5116594;28;20146;-83
2022/02/25 01:05:16;;;;;;;1.90;0.60;;;4.70;99.90;;;;;;5116108;28;20052;-83
2022/02/25 01:07:44;;;;;;;1.20;0.60;;;4.70;99.90;;;;;;5116707;28;20048;-82
2022/02/25 01:10:12;;;;;;;0.90;0.80;;;4.70;99.90;;;;;;5116426;28;20079;-82
2022/02/25 01:12:39;;;;;;;1.50;0.40;;;4.70;99.90;;;;;;5116065;28;20061;-81
2022/02/25 01:15:07;;;;;;;1.10;0.70;;;4.70;99.90;;;;;;5105841;28;20051;-83
2022/02/25 01:17:34;;;;;;;0.87;0.47;;;4.70;99.90;;;;;;5107268;28;20062;-82
2022/02/25 01:20:05;;;;;;;0.93;0.70;;;4.70;99.90;;;;;;5115781;28;20051;-83
2022/02/25 01:22:32;;;;;;;1.93;0.93;;;4.60;99.90;;;;;;5116154;28;20553;-82
2022/02/25 01:25:04;;;;;;;3.27;0.93;;;4.60;99.90;;;;;;5106717;28;20052;-81
2022/02/25 01:27:32;;;;;;;1.23;0.70;;;4.60;99.90;;;;;;5096676;28;20142;-83
2022/02/25 01:29:59;;;;;;;0.80;0.70;;;4.60;99.90;;;;;;5095812;28;20505;-81
2022/02/25 01:32:26;;;;;;;1.43;0.70;;;4.50;99.90;;;;;;5095636;28;20471;-83
2022/02/25 01:34:54;;;;;;;5.10;0.70;;;4.60;99.90;;;;;;5096029;28;20059;-82
2022/02/25 01:37:25;;;;;;;104.53;57.07;;;4.60;99.90;;;;;;5096694;28;20472;-85
2022/02/25 01:39:52;;;;;;;41.63;25.10;;;4.60;99.90;;;;;;5100338;28;20043;-79
2022/02/25 01:42:19;;;;;;;0.67;0.67;;;4.60;99.90;;;;;;5117898;28;20074;-84
2022/02/25 01:44:47;;;;;;;2.23;0.90;;;4.50;99.90;;;;;;5118068;28;20122;-83
2022/02/25 01:47:17;;;;;;;1.47;0.67;;;4.50;99.90;;;;;;5118251;28;20082;-81
2022/02/25 01:50:09;;;;;;;1.53;0.50;;;4.40;99.90;;;;;;5116892;28;20048;-81
2022/02/25 01:52:47;;;;;;;2.42;0.63;;;4.40;99.90;;;;;;5106966;28;20405;-83
2022/02/25 01:55:19;;;;;;;1.20;0.73;;;4.30;99.90;;;;;;5116889;28;20506;-84
2022/02/25 01:57:46;;;;;;;2.78;1.13;;;4.30;99.90;;;;;;5109691;28;20116;-82
2022/02/25 02:00:22;;;;;;;2.77;1.00;;;4.30;99.90;;;;;;5094867;28;20044;-81
2022/02/25 02:02:57;;;;;;;1.07;1.07;;;4.30;99.90;;;;;;5096257;28;20048;-83
2022/02/25 02:05:33;;;;;;;3.90;0.87;;;4.40;99.90;;;;;;5096612;28;20056;-84
2022/02/25 02:08:05;;;;;;;0.57;0.57;;;4.40;99.90;;;;;;5105496;28;20097;-84
2022/02/25 02:10:32;;;;;;;0.40;0.32;;;4.40;99.90;;;;;;5117865;28;20496;-82
2022/02/25 02:13:02;;;;;;;0.83;0.83;;;4.40;99.90;;;;;;5117605;28;20051;-82
2022/02/25 02:15:30;;;;;;;0.97;0.77;;;4.30;99.90;;;;;;5104146;28;20094;-82
2022/02/25 02:18:06;;;;;;;2.43;0.80;;;4.30;99.90;;;;;;5096292;28;20061;-82
2022/02/25 02:23:26;;;;;;;1.00;0.82;;;4.20;99.90;;;;;;5022927;28;20093;-81
2022/02/25 02:26:02;;;;;;;0.80;0.73;;;4.20;99.90;;;;;;5015856;28;20060;-81
2022/02/25 02:28:29;;;;;;;5.73;1.33;;;4.20;99.90;;;;;;5015603;28;20050;-83
2022/02/25 02:31:00;;;;;;;1.50;0.73;;;4.30;99.90;;;;;;5015229;28;20523;-82
2022/02/25 02:33:36;;;;;;;4.50;0.70;;;4.30;99.90;;;;;;5021408;28;20046;-82
2022/02/25 02:36:06;;;;;;;2.13;0.90;;;4.30;99.90;;;;;;5037342;28;20072;-82
2022/02/25 02:38:36;;;;;;;3.23;1.00;;;4.30;99.90;;;;;;5044576;28;20045;-81
2022/02/25 02:41:04;;;;;;;0.60;0.57;;;4.30;99.90;;;;;;5047498;28;20050;-81
2022/02/25 02:43:31;;;;;;;1.30;0.73;;;4.30;99.90;;;;;;5043637;28;20120;-81
2022/02/25 02:45:58;;;;;;;2.03;1.33;;;4.30;99.90;;;;;;5038755;28;20064;-81
2022/02/25 02:48:25;;;;;;;1.43;0.80;;;4.20;99.90;;;;;;5104041;28;20063;-83
2022/02/25 02:50:54;;;;;;;1.20;1.10;;;4.20;99.90;;;;;;5120236;28;20043;-81
2022/02/25 02:53:21;;;;;;;2.70;0.87;;;4.20;99.90;;;;;;5096817;28;20075;-81
2022/02/25 02:55:52;;;;;;;3.90;1.07;;;4.10;99.90;;;;;;5097409;28;20492;-88
2022/02/25 02:58:21;;;;;;;87.20;46.38;;;4.10;99.90;;;;;;5098301;28;20055;-81
2022/02/25 03:00:50;;;;;;;5.97;3.00;;;4.10;99.90;;;;;;5096105;28;20055;-80
2022/02/25 03:03:17;;;;;;;0.70;0.70;;;4.10;99.90;;;;;;5095505;28;20056;-81
2022/02/25 03:05:44;;;;;;;0.80;0.80;;;4.10;99.90;;;;;;5100045;28;20044;-80
2022/02/25 03:08:12;;;;;;;0.73;0.50;;;4.10;99.90;;;;;;5109602;28;20041;-82
2022/02/25 03:10:43;;;;;;;4.07;0.77;;;4.00;99.90;;;;;;5127898;28;20107;-80
2022/02/25 03:13:19;;;;;;;1.27;1.17;;;3.90;99.90;;;;;;5117439;28;20132;-82
2022/02/25 03:15:47;;;;;;;0.60;0.60;;;3.80;99.90;;;;;;5110455;28;20044;-83
2022/02/25 03:18:15;;;;;;;2.07;1.33;;;3.70;99.90;;;;;;5094750;28;20055;-82
2022/02/25 03:20:50;;;;;;;0.87;0.63;;;3.80;99.90;;;;;;5114513;28;20139;-81
2022/02/25 03:23:22;;;;;;;1.63;1.20;;;3.80;99.90;;;;;;5114516;28;20051;-81
2022/02/25 03:25:51;;;;;;;;;;;3.80;99.90;;;;;;5115232;28;20058;-81
2022/02/25 03:28:22;;;;;;;1.50;0.63;;;3.80;99.90;;;;;;5095696;28;19924;-81
2022/02/25 03:30:53;;;;;;;9.53;1.90;;;3.80;99.90;;;;;;5094551;28;20047;-83
2022/02/25 03:33:21;;;;;;;4.22;0.88;;;3.90;99.90;;;;;;5095106;28;20055;-83
2022/02/25 03:35:55;;;;;;;0.70;0.70;;;3.90;99.90;;;;;;5094653;28;20056;-83
2022/02/25 03:38:27;;;;;;;4.17;0.97;;;3.90;99.90;;;;;;5094765;28;20542;-83
2022/02/25 03:40:56;;;;;;;1.48;0.80;;;4.00;99.90;;;;;;5104868;28;20104;-84
2022/02/25 03:43:28;;;;;;;0.70;0.70;;;3.90;99.90;;;;;;5102839;28;20083;-84
2022/02/25 03:46:01;;;;;;;4.00;1.00;;;3.90;99.90;;;;;;5097996;28;20052;-84
2022/02/25 03:48:28;;;;;;;2.37;1.57;;;3.80;99.90;;;;;;5096102;28;20137;-82
2022/02/25 03:51:00;;;;;;;2.60;1.57;;;3.80;99.90;;;;;;5097519;28;20052;-82
2022/02/25 03:53:32;;;;;;;1.00;0.90;;;3.80;99.90;;;;;;5101574;28;20466;-83
2022/02/25 03:56:01;;;;;;;;;;;3.70;99.90;;;;;;5114670;28;20056;-81
2022/02/25 03:58:31;;;;;;;8.33;2.10;;;3.70;99.90;;;;;;5121771;28;19923;-83
2022/02/25 04:00:59;;;;;;;2.27;1.23;;;3.60;99.90;;;;;;5121123;28;20093;-83
2022/02/25 04:03:33;;;;;;;4.10;1.73;;;3.70;99.90;;;;;;5101051;28;20109;-83
2022/02/25 04:06:08;;;;;;;3.20;1.50;;;3.60;99.90;;;;;;5107126;28;20035;-82
2022/02/25 04:08:41;;;;;;;2.73;0.70;;;3.60;99.90;;;;;;5109867;28;20486;-83
2022/02/25 04:11:09;;;;;;;1.20;0.90;;;3.50;99.90;;;;;;5097207;28;20047;-82
2022/02/25 04:13:41;;;;;;;3.33;1.77;;;3.50;99.90;;;;;;5096730;28;20105;-81
2022/02/25 04:16:10;;;;;;;4.33;1.50;;;3.50;99.90;;;;;;5095766;28;20044;-81
2022/02/25 04:18:37;;;;;;;2.30;1.20;;;3.50;99.90;;;;;;5095047;28;20048;-81
2022/02/25 04:21:04;;;;;;;1.33;1.20;;;3.40;99.90;;;;;;5093467;28;20044;-81
2022/02/25 04:23:31;;;;;;;5.23;1.03;;;3.30;99.90;;;;;;5094956;28;20067;-83
2022/02/25 04:25:59;;;;;;;1.20;1.10;;;3.30;99.90;;;;;;5098111;28;20411;-80
2022/02/25 04:28:27;;;;;;;7.10;1.60;;;3.20;99.90;;;;;;5100326;28;20040;-82
2022/02/25 04:30:56;;;;;;;4.00;2.23;;;3.20;99.90;;;;;;5119298;28;20505;-84
2022/02/25 04:33:23;;;;;;;4.97;1.43;;;3.10;99.90;;;;;;5119235;28;20054;-84
2022/02/25 04:35:50;;;;;;;1.50;1.20;;;3.10;99.90;;;;;;5118973;28;20071;-86
2022/02/25 04:38:20;;;;;;;5.50;1.87;;;3.20;99.90;;;;;;5118919;28;20066;-85
2022/02/25 04:40:47;;;;;;;8.30;1.20;;;3.10;99.90;;;;;;5118760;28;20044;-85
2022/02/25 04:43:14;;;;;;;1.33;1.17;;;3.00;99.90;;;;;;5117717;28;20127;-82
2022/02/25 04:45:45;;;;;;;2.50;0.90;;;3.00;99.90;;;;;;5118092;28;20055;-81
2022/02/25 04:48:13;;;;;;;3.53;0.95;;;3.00;99.90;;;;;;5117207;28;20044;-80
2022/02/25 04:50:40;;;;;;;2.17;1.33;;;2.90;99.90;;;;;;5098859;28;20064;-81
2022/02/25 04:53:07;;;;;;;1.33;1.23;;;2.90;99.90;;;;;;5097266;28;20477;-83
2022/02/25 04:55:37;;;;;;;1.13;0.67;;;2.80;99.90;;;;;;5097313;28;20055;-83
2022/02/25 04:58:04;;;;;;;4.63;1.83;;;2.70;99.90;;;;;;5114547;28;20044;-83
2022/02/25 05:00:34;;;;;;;4.27;1.30;;;2.70;99.90;;;;;;5118205;28;20050;-84
2022/02/25 05:03:01;;;;;;;2.90;0.83;;;2.70;99.90;;;;;;5098597;28;20059;-80
2022/02/25 05:05:29;;;;;;;2.40;1.87;;;2.70;99.90;;;;;;5097190;28;20539;-83
2022/02/25 05:07:58;;;;;;;2.17;1.40;;;2.80;99.90;;;;;;5096808;28;20078;-81
2022/02/25 05:10:26;;;;;;;2.50;1.07;;;2.80;99.90;;;;;;5096896;28;20060;-81
2022/02/25 05:12:58;;;;;;;2.50;1.33;;;2.80;99.90;;;;;;5096632;28;20565;-81
2022/02/25 05:21:03;;;;;;;2.80;0.90;;;2.70;99.90;;;;;;5117143;28;20065;-86
2022/02/25 05:23:32;;;;;;;21.27;10.97;;;2.60;99.90;;;;;;5117265;28;20054;-81
2022/02/25 05:25:59;;;;;;;20.20;12.33;;;2.70;99.90;;;;;;5117513;28;20048;-81
2022/02/25 05:28:26;;;;;;;1.63;1.50;;;2.60;99.90;;;;;;5119082;28;20051;-82
2022/02/25 05:30:53;;;;;;;6.27;2.00;;;2.60;99.90;;;;;;5117843;28;20054;-81
2022/02/25 05:33:19;;;;;;;2.10;1.70;;;2.50;99.90;;;;;;5120761;28;20093;-82
2022/02/25 05:35:49;;;;;;;2.23;1.43;;;2.50;99.90;;;;;;5127897;28;20055;-80
2022/02/25 05:38:17;;;;;;;7.93;1.73;;;2.40;99.90;;;;;;5132173;28;20047;-82
2022/02/25 05:40:44;;;;;;;1.60;1.17;;;2.40;99.90;;;;;;5137589;28;20048;-81
2022/02/25 05:43:11;;;;;;;3.63;1.47;;;2.30;99.90;;;;;;5134955;28;20054;-83
2022/02/25 05:45:38;;;;;;;2.43;1.93;;;2.40;99.90;;;;;;5136705;28;20055;-82
2022/02/25 05:48:05;;;;;;;7.57;2.30;;;2.40;99.90;;;;;;5136928;28;20070;-81
2022/02/25 05:50:32;;;;;;;1.67;1.57;;;2.30;99.90;;;;;;5136141;28;20078;-80
2022/02/25 05:52:59;;;;;;;2.27;0.90;;;2.30;99.90;;;;;;5138687;28;20032;-80
2022/02/25 05:55:27;;;;;;;5.33;1.57;;;2.30;99.90;;;;;;5137086;28;20027;-82
2022/02/25 05:57:55;;;;;;;3.80;1.73;;;2.30;99.90;;;;;;5120130;28;20032;-80
2022/02/25 06:00:23;;;;;;;42.23;24.97;;;2.20;99.90;;;;;;5116578;28;20070;-82
2022/02/25 06:02:50;;;;;;;4.87;2.17;;;2.30;99.90;;;;;;5116847;28;20044;-82
2022/02/25 06:05:18;;;;;;;1.87;1.60;;;2.30;99.90;;;;;;5113657;28;20044;-81
2022/02/25 06:07:44;;;;;;;1.33;1.23;;;2.20;99.90;;;;;;5116294;28;20099;-82
2022/02/25 06:10:12;;;;;;;7.40;1.93;;;2.20;99.90;;;;;;5118188;28;20152;-82
2022/02/25 06:12:41;;;;;;;1.23;1.13;;;2.20;99.90;;;;;;5117291;28;20066;-84
2022/02/25 06:15:13;;;;;;;1.20;1.10;;;2.20;99.90;;;;;;5117658;28;20036;-82
2022/02/25 06:17:44;;;;;;;5.30;1.70;;;2.30;99.90;;;;;;5116757;28;20052;-84
2022/02/25 06:20:14;;;;;;;4.18;2.28;;;2.40;99.90;;;;;;5132904;28;20071;-82
2022/02/25 06:22:41;;;;;;;2.87;1.57;;;2.40;99.90;;;;;;5126924;28;20051;-82
2022/02/25 06:25:12;;;;;;;4.97;1.37;;;2.50;99.90;;;;;;5119080;28;20143;-83
2022/02/25 06:27:42;;;;;;;1.80;1.57;;;2.60;99.90;;;;;;5103393;28;20040;-84
2022/02/25 06:30:14;;;;;;;2.00;1.80;;;2.70;99.90;;;;;;5098771;28;20294;-83
2022/02/25 06:32:41;;;;;;;2.55;1.45;;;2.80;99.90;;;;;;5098772;28;20091;-82
2022/02/25 06:35:14;;;;;;;1.23;1.13;;;2.90;99.90;;;;;;5098070;28;20070;-83
2022/02/25 06:37:44;;;;;;;2.53;1.17;;;3.00;99.90;;;;;;5095484;28;20421;-83
2022/02/25 06:40:13;;;;;;;8.03;1.63;;;3.00;99.90;;;;;;5095691;28;20048;-81
2022/02/25 06:42:42;;;;;;;2.63;1.83;;;3.10;99.90;;;;;;5114138;28;20059;-81
2022/02/25 06:45:12;;;;;;;2.87;1.57;;;3.20;99.90;;;;;;5115624;28;20052;-81
2022/02/25 06:47:39;;;;;;;2.80;2.23;;;3.40;99.90;;;;;;5114515;28;20135;-82
2022/02/25 06:50:09;;;;;;;2.13;1.87;;;3.60;99.90;;;;;;5115000;28;20127;-80
2022/02/25 06:52:36;;;;;;;4.37;1.37;;;3.70;99.90;;;;;;5098829;28;20051;-81
2022/02/25 06:55:16;;;;;;;2.40;2.13;;;3.70;99.90;;;;;;5112856;28;20055;-82
2022/02/25 06:57:45;;;;;;;3.30;2.37;;;3.80;99.90;;;;;;5094484;28;20063;-83
2022/02/25 07:00:17;;;;;;;5.93;2.73;;;4.00;99.90;;;;;;5094156;28;20044;-82
2022/02/25 07:02:44;;;;;;;2.90;1.80;;;4.10;99.90;;;;;;5094087;28;20079;-81
2022/02/25 07:05:11;;;;;;;4.00;1.63;;;4.10;99.90;;;;;;5111988;28;20053;-80
2022/02/25 07:07:41;;;;;;;3.33;2.67;;;4.20;99.90;;;;;;5114381;28;20487;-82
2022/02/25 07:10:08;;;;;;;1.83;1.73;;;4.20;99.90;;;;;;5114293;28;20052;-84
2022/02/25 07:12:43;;;;;;;3.60;2.40;;;4.00;99.90;;;;;;5114940;28;20455;-83
2022/02/25 07:15:12;;;;;;;1.80;1.70;;;4.10;99.90;;;;;;5114480;28;20065;-81
2022/02/25 07:17:47;;;;;;;2.10;1.80;;;4.00;99.90;;;;;;5108123;28;20059;-82
2022/02/25 07:20:19;;;;;;;2.03;1.60;;;3.90;99.90;;;;;;5097146;28;20048;-83
2022/02/25 07:22:48;;;;;;;;;;;3.70;99.90;;;;;;5096017;28;20056;-82
2022/02/25 07:25:23;;;;;;;2.03;1.73;;;3.70;99.90;;;;;;5114189;28;20304;-81
2022/02/25 07:27:52;;;;;;;2.30;2.10;;;3.70;99.90;;;;;;5114702;28;20075;-81
2022/02/25 07:30:26;;;;;;;5.57;2.00;;;3.70;99.90;;;;;;5108249;28;20059;-82
2022/02/25 07:32:53;;;;;;;2.97;2.20;;;3.80;99.90;;;;;;5114502;28;20048;-82
2022/02/25 07:35:20;;;;;;;3.93;2.30;;;3.80;99.90;;;;;;5115059;28;20060;-82
2022/02/25 07:37:47;;;;;;;1.83;1.60;;;3.90;99.90;;;;;;5115152;28;20481;-81
2022/02/25 07:40:14;;;;;;;5.17;1.40;;;3.80;99.90;;;;;;5115004;28;20074;-82
2022/02/25 07:42:42;;;;;;;3.43;2.17;;;3.80;99.90;;;;;;5115348;28;20059;-82
2022/02/25 07:45:10;;;;;;;5.20;2.20;;;4.00;99.90;;;;;;5115014;28;20043;-81
2022/02/25 07:47:38;;;;;;;1.70;1.60;;;4.00;99.90;;;;;;5111494;28;20054;-81
2022/02/25 07:50:06;;;;;;;1.43;1.33;;;4.00;99.90;;;;;;5094580;28;20490;-83
2022/02/25 07:52:36;;;;;;;2.93;1.87;;;4.00;99.90;;;;;;5095236;28;20486;-85
2022/02/25 07:55:04;;;;;;;2.13;1.97;;;3.90;99.90;;;;;;5096708;28;20082;-82
2022/02/25 07:57:32;;;;;;;3.70;2.17;;;4.00;99.90;;;;;;5097642;28;20052;-85
2022/02/25 07:59:59;;;;;;;79.93;44.07;;;3.90;99.90;;;;;;5104633;28;20043;-81
2022/02/25 08:02:31;;;;;;;12.50;6.80;;;4.10;99.90;;;;;;5116982;28;20070;-89
2022/02/25 08:05:00;;;;;;;2.40;1.60;;;4.20;99.90;;;;;;5090711;28;20055;-82
2022/02/25 08:07:26;;;;;;;1.80;1.70;;;4.40;99.90;;;;;;5111857;28;20070;-82
2022/02/25 08:09:55;;;;;;;1.63;1.53;;;4.60;99.90;;;;;;5110628;28;20040;-85
2022/02/25 08:15:10;;;;;;;2.25;2.05;;;4.90;99.90;;;;;;5115848;28;20043;-90
2022/02/25 08:17:49;;;;;;;4.07;1.80;;;5.00;99.90;;;;;;5124611;28;20115;-91
2022/02/25 08:20:18;;;;;;;1.73;1.30;;;5.10;99.90;;;;;;5126045;28;20134;-87
2022/02/25 08:22:46;;;;;;;2.00;1.60;;;4.90;99.90;;;;;;5123433;28;20051;-86
2022/02/25 08:25:16;;;;;;;2.20;1.57;;;4.70;99.90;;;;;;5124756;28;20051;-85
2022/02/25 08:27:46;;;;;;;28.03;17.33;;;5.40;99.90;;;;;;5122757;28;20469;-91
2022/02/25 08:30:35;;;;;;;4.83;2.80;;;6.10;99.90;;;;;;5114888;28;20517;-93
2022/02/25 08:33:02;;;;;;;2.87;1.83;;;6.70;99.90;;;;;;5118129;28;20147;-85
2022/02/25 08:35:34;;;;;;;2.30;2.10;;;6.70;99.90;;;;;;5113848;28;20049;-86
2022/02/25 08:38:03;;;;;;;2.20;0.90;;;6.40;99.90;;;;;;5104483;28;20497;-87
2022/02/25 08:40:30;;;;;;;1.60;0.87;;;6.90;99.90;;;;;;5100547;28;20048;-88
2022/02/25 08:42:58;;;;;;;1.30;1.20;;;7.50;99.90;;;;;;5120041;28;20489;-81
2022/02/25 08:45:24;;;;;;;2.03;1.17;;;8.00;99.90;;;;;;5110640;28;20044;-81
2022/02/25 08:47:52;;;;;;;1.50;1.13;;;8.00;99.00;;;;;;5117911;28;20485;-85
2022/02/25 08:50:20;;;;;;;4.88;1.40;;;8.30;98.90;;;;;;5117015;28;20405;-84
2022/02/25 08:52:51;;;;;;;3.43;1.40;;;7.90;97.60;;;;;;5117265;28;20482;-87
2022/02/25 08:55:19;;;;;;;2.00;1.00;;;8.10;97.70;;;;;;5102644;28;20055;-89
2022/02/25 08:57:49;;;;;;;2.95;1.20;;;8.30;96.50;;;;;;5102856;28;20048;-90
2022/02/25 09:00:19;;;;;;;4.35;1.42;;;8.00;97.00;;;;;;5098053;28;20444;-85
2022/02/25 09:02:47;;;;;;;2.07;1.30;;;8.00;96.50;;;;;;5111258;28;20044;-84
2022/02/25 09:05:15;;;;;;;2.00;1.23;;;8.30;96.00;;;;;;5102003;28;20055;-85
2022/02/25 09:07:43;;;;;;;2.03;1.77;;;8.80;95.50;;;;;;5102757;28;20044;-88
2022/02/25 09:10:15;;;;;;;5.97;1.42;;;9.30;93.40;;;;;;5111423;28;20478;-86
2022/02/25 09:12:43;;;;;;;5.97;1.33;;;9.30;93.20;;;;;;5110247;28;20477;-85
2022/02/25 09:15:12;;;;;;;1.52;1.42;;;9.60;92.10;;;;;;5103982;28;20063;-87
2022/02/25 09:17:39;;;;;;;3.45;1.60;;;9.00;92.00;;;;;;5100907;28;20104;-89
2022/02/25 09:20:09;;;;;;;3.25;1.45;;;9.40;91.70;;;;;;5100244;28;20052;-86
2022/02/25 09:22:37;;;;;;;4.22;1.33;;;10.30;91.20;;;;;;5113249;28;20043;-88
2022/02/25 09:25:05;;;;;;;0.95;0.70;;;9.80;90.00;;;;;;5117624;28;20052;-83
2022/02/25 09:27:34;;;;;;;1.02;1.02;;;8.50;91.60;;;;;;5117625;28;20052;-85
2022/02/25 09:30:02;;;;;;;0.67;0.63;;;8.30;92.90;;;;;;5121087;28;20055;-84
2022/02/25 09:32:29;;;;;;;2.90;1.52;;;8.80;92.40;;;;;;5106405;28;20051;-82
2022/02/25 09:34:57;;;;;;;4.63;1.33;;;9.30;91.30;;;;;;5098603;28;20059;-85
2022/02/25 09:37:24;;;;;;;4.05;1.35;;;9.20;91.00;;;;;;5102238;28;20051;-82
2022/02/25 09:39:51;;;;;;;2.83;0.95;;;9.30;91.10;;;;;;5096840;28;20109;-81
2022/02/25 09:42:21;;;;;;;3.63;1.15;;;8.20;92.50;;;;;;5098360;28;20048;-83
2022/02/25 09:44:49;;;;;;;4.43;1.85;;;7.90;93.60;;;;;;5096502;28;20489;-80
2022/02/25 09:47:17;;;;;;;2.10;1.67;;;8.00;93.70;;;;;;5098022;28;20052;-82
2022/02/25 09:49:44;;;;;;;7.80;2.33;;;8.80;92.70;;;;;;5105362;28;20051;-82
2022/02/25 09:52:14;;;;;;;1.75;1.10;;;8.90;92.90;;;;;;5116581;28;20067;-84
2022/02/25 09:54:41;;;;;;;4.13;1.23;;;10.40;91.30;;;;;;5116837;28;20086;-80
2022/02/25 09:57:08;;;;;;;7.32;1.52;;;10.70;87.60;;;;;;5114213;28;20069;-80
2022/02/25 09:59:36;;;;;;;1.55;1.00;;;9.90;90.20;;;;;;5117752;28;20061;-88
2022/02/25 10:02:06;;;;;;;1.50;0.98;;;9.30;91.50;;;;;;5116524;28;20043;-82
2022/02/25 10:04:34;;;;;;;2.00;1.20;;;8.20;92.10;;;;;;5109920;28;20051;-84
2022/02/25 10:07:02;;;;;;;4.30;1.13;;;8.60;93.70;;;;;;5116112;28;20067;-84
2022/02/25 10:09:33;;;;;;;2.60;0.83;;;10.50;91.00;;;;;;5115170;28;20059;-77
2022/02/25 10:12:06;;;;;;;1.27;0.68;;;11.10;88.50;;;;;;5115274;28;20047;-78
2022/02/25 10:14:34;;;;;;;1.80;1.60;;;12.30;85.50;;;;;;5115731;28;20390;-86
2022/02/25 10:17:12;;;;;;;1.45;0.88;;;12.10;82.30;;;;;;5115013;28;20580;-86
2022/02/25 10:19:39;;;;;;;1.38;0.77;;;12.80;82.10;;;;;;5115165;28;20482;-79
2022/02/25 10:22:24;;;;;;;4.88;1.42;;;14.30;77.50;;;;;;5095331;28;20040;-83
2022/02/25 10:24:55;;;;;;;0.73;0.70;;;12.40;75.80;;;;;;5096924;28;20059;-83
2022/02/25 10:27:24;;;;;;;2.55;1.10;;;12.80;79.20;;;;;;5095966;28;20055;-84
2022/02/25 10:29:58;;;;;;;4.47;1.13;;;12.90;79.70;;;;;;5095366;28;20118;-85
2022/02/25 10:32:33;;;;;;;5.00;1.60;;;14.10;75.20;;;;;;5106264;28;20100;-85
2022/02/25 10:35:00;;;;;;;3.13;1.38;;;11.50;78.10;;;;;;5115658;28;20490;-86
2022/02/25 10:37:28;;;;;;;2.03;0.95;;;9.80;85.30;;;;;;5116422;28;20482;-84
2022/02/25 10:39:55;;;;;;;1.75;0.90;;;9.80;85.40;;;;;;5115942;28;20498;-84
2022/02/25 10:42:24;;;;;;;1.20;1.05;;;10.30;86.50;;;;;;5115324;28;20051;-85
2022/02/25 10:44:57;;;;;;;2.90;1.42;;;9.50;87.60;;;;;;5109443;28;20106;-84
2022/02/25 10:47:25;;;;;;;2.58;0.93;;;9.00;87.00;;;;;;5095702;28;20048;-85
2022/02/25 10:50:02;;;;;;;6.72;1.90;;;9.10;88.40;;;;;;5095940;28;20052;-84
2022/02/25 10:52:33;;;;;;;2.80;1.05;;;8.90;89.00;;;;;;5095335;28;20078;-83
2022/02/25 10:55:01;;;;;;;3.92;1.00;;;10.20;86.80;;;;;;5095637;28;20055;-84
2022/02/25 10:57:29;;;;;;;0.98;0.90;;;11.60;82.20;;;;;;5096518;28;20047;-85
2022/02/25 10:59:57;;;;;;;0.90;0.90;;;10.90;78.60;;;;;;5096741;28;20417;-84
2022/02/25 11:02:34;;;;;;;3.35;1.20;;;10.50;81.20;;;;;;5115054;28;20126;-86
2022/02/25 11:05:09;;;;;;;3.05;1.02;;;9.00;83.30;;;;;;5115394;28;20493;-85
2022/02/25 11:07:38;;;;;;;3.40;2.45;;;8.80;84.60;;;;;;5115713;28;20417;-85
2022/02/25 11:10:06;;;;;;;5.23;1.00;;;8.40;84.50;;;;;;5115138;28;20047;-83
2022/02/25 11:12:35;;;;;;;1.40;0.90;;;7.90;86.00;;;;;;5115047;28;20511;-83
2022/02/25 11:15:03;;;;;;;4.47;1.33;;;7.90;87.30;;;;;;5115277;28;20055;-83
2022/02/25 11:17:31;;;;;;;4.93;1.97;;;7.60;87.90;;;;;;5114819;28;20058;-83
2022/02/25 11:20:00;;;;;;;1.93;1.10;;;7.30;88.90;;;;;;5114489;28;20051;-83
2022/02/25 11:22:31;;;;;;;4.57;1.83;;;7.20;90.10;;;;;;5114579;28;20500;-85
2022/02/25 11:24:59;;;;;;;0.83;0.83;;;7.10;90.40;;;;;;5115032;28;20051;-84
2022/02/25 11:27:26;;;;;;;2.50;1.03;;;7.00;90.50;;;;;;5114815;28;20289;-82
2022/02/25 11:30:03;;;;;;;0.83;0.83;;;7.00;90.70;;;;;;5112511;28;20052;-85
2022/02/25 11:32:37;;;;;;;3.30;1.10;;;7.20;90.30;;;;;;5098873;28;20160;-82
2022/02/25 11:35:17;;;;;;;0.93;0.90;;;7.50;90.00;;;;;;5098412;28;20054;-83
2022/02/25 11:37:47;;;;;;;7.23;1.23;;;7.50;90.40;;;;;;5098623;28;20074;-84
2022/02/25 11:40:18;;;;;;;5.63;1.10;;;7.40;90.10;;;;;;5098268;28;20044;-85
2022/02/25 11:42:48;;;;;;;1.17;0.97;;;7.50;90.50;;;;;;5099208;28;20044;-85
2022/02/25 11:45:20;;;;;;;0.90;0.90;;;7.40;90.30;;;;;;5103178;28;20428;-84
2022/02/25 11:47:56;;;;;;;3.80;1.90;;;7.40;90.70;;;;;;5098556;28;20055;-83
2022/02/25 11:50:35;;;;;;;1.73;1.07;;;7.30;91.10;;;;;;5098787;28;20055;-84
2022/02/25 11:53:21;;;;;;;8.13;1.80;;;7.20;91.10;;;;;;5113692;28;20124;-84
2022/02/25 11:55:49;;;;;;;4.87;1.47;;;7.20;91.10;;;;;;5106968;28;20081;-89
2022/02/25 11:58:46;;;;;;;1.53;1.37;;;6.90;91.50;;;;;;5107236;28;20051;-81
2022/02/25 12:01:14;;;;;;;2.57;1.73;;;6.90;91.80;;;;;;5105899;28;20077;-80
2022/02/25 12:04:11;;;;;;;1.47;1.27;;;6.90;92.00;;;;;;5127703;28;20039;-82
2022/02/25 12:07:00;;;;;;;1.33;1.00;;;6.80;92.40;;;;;;5114262;28;20097;-82
2022/02/25 12:09:44;;;;;;;0.73;0.73;;;6.70;92.00;;;;;;5100643;28;20051;-82
2022/02/25 12:12:33;;;;;;;2.00;1.03;;;6.60;92.20;;;;;;5117176;28;20047;-80
2022/02/25 12:15:02;;;;;;;1.77;0.93;;;6.50;92.30;;;;;;5121699;28;20047;-82
2022/02/25 12:17:47;;;;;;;3.53;1.50;;;6.50;92.70;;;;;;5101873;28;20072;-82
2022/02/25 12:20:18;;;;;;;7.40;1.57;;;6.40;93.10;;;;;;5126419;28;20059;-83
2022/02/25 12:22:55;;;;;;;2.85;0.90;;;6.30;93.20;;;;;;5119158;28;20097;-81
2022/02/25 12:25:46;;;;;;;2.50;1.20;;;6.40;93.80;;;;;;5100383;28;20100;-84
2022/02/25 12:28:33;;;;;;;2.97;1.40;;;6.50;94.20;;;;;;5104166;28;20051;-82
2022/02/25 12:31:04;;;;;;;2.87;1.17;;;6.30;94.20;;;;;;5120269;28;20047;-82
2022/02/25 12:33:33;;;;;;;2.88;1.13;;;6.50;94.50;;;;;;5120918;28;20043;-83
2022/02/25 12:36:02;;;;;;;3.20;1.03;;;6.40;94.20;;;;;;5129464;28;20043;-83
2022/02/25 12:38:31;;;;;;;2.20;0.90;;;6.60;94.80;;;;;;5138454;28;20052;-82
2022/02/25 12:41:11;;;;;;;7.23;1.77;;;6.80;94.30;;;;;;5135928;28;20055;-84
2022/02/25 12:43:48;;;;;;;2.50;1.67;;;6.70;93.80;;;;;;5137936;28;20055;-83
2022/02/25 12:46:15;;;;;;;3.33;1.57;;;6.60;94.20;;;;;;5127291;28;20043;-86
2022/02/25 12:48:42;;;;;;;3.03;1.63;;;6.40;94.60;;;;;;5124678;28;20059;-84
2022/02/25 12:51:09;;;;;;;7.37;1.63;;;6.40;95.00;;;;;;5122292;28;20044;-84
2022/02/25 12:53:51;;;;;;;6.23;2.97;;;6.40;95.60;;;;;;5125909;28;20111;-83
2022/02/25 12:56:21;;;;;;;1.47;1.13;;;6.20;95.90;;;;;;5115619;28;20086;-82
2022/02/25 12:58:53;;;;;;;1.13;1.03;;;6.20;97.40;;;;;;5140494;28;20035;-81
2022/02/25 13:01:25;;;;;;;7.50;2.22;;;6.10;97.80;;;;;;5137500;28;20046;-84
2022/02/25 13:04:02;;;;;;;10.07;1.83;;;6.00;99.20;;;;;;5141138;28;20048;-83
2022/02/25 13:06:30;;;;;;;4.03;1.87;;;5.90;99.90;;;;;;5128352;28;20035;-83
2022/02/25 13:09:01;;;;;;;2.63;1.23;;;5.70;99.90;;;;;;5120908;28;20083;-84
2022/02/25 13:11:32;;;;;;;3.28;1.65;;;5.70;99.90;;;;;;5120355;28;20048;-82
2022/02/25 13:14:14;;;;;;;3.97;1.87;;;5.60;99.90;;;;;;5121200;28;20040;-82
2022/02/25 13:16:42;;;;;;;2.00;1.80;;;5.70;99.90;;;;;;5122507;28;20052;-82
2022/02/25 13:19:23;;;;;;;4.87;2.10;;;5.80;99.90;;;;;;5124143;28;20067;-82
2022/02/25 13:22:04;;;;;;;1.57;1.33;;;5.80;99.90;;;;;;5122467;28;20104;-84
2022/02/25 13:24:32;;;;;;;1.83;1.73;;;5.80;99.90;;;;;;5122017;28;20065;-84